Terminal Aerodrome Forecast
Issued by NWS Spokane, WA

Home | Current Version | Previous Version | Text Only | Print | Product List | Glossary On
Versions: 1 2 3 4 5 6 7 8 9 10 11 12 13
000
FTUS46 KOTX 302320
TAFGEG
TAF
KGEG 302320Z 0100/0124 20010KT P6SM SCT090 SCT120
     FM010300 22005KT P6SM VCSH BKN080 OVC150
     FM010700 21010KT P6SM -TSRA BKN080CB OVC100
     FM011400 19011KT P6SM BKN080 BKN120=

USA.gov is the U.S. government's official web portal to all federal, state and local government web resources and services.